Terminal Aerodrome Forecast
Issued by NWS Omaha/Valley, NE

Home | Current Version | Previous Version | Text Only | Print | Product List | Glossary Off
Versions: 1 2 3 4 5 6 7 8 9 10 11 12 13 14 15 16 17 18 19 20 21 22 23 24 25 26 27 28 29 30 31 32 33 34 35 36 37 38 39 40 41 42 43 44 45

000
FTUS43 KOAX 251228 AAB
TAFOFK
TAF AMD
KOFK 251228Z 2512/2612 36012KT P6SM VCSH BKN015 OVC090
      TEMPO 2512/2515 4SM SHRA OVC010
     FM251500 01013KT 6SM -SHRA BKN010 OVC030
     FM251900 35012KT 4SM -SHRA BKN008 OVC020
     FM260100 34016G24KT P6SM VCSH BKN008 OVC015
     FM260600 33017KT P6SM OVC008=

USA.gov is the U.S. government's official web portal to all federal, state and local government web resources and services.